Terminal Aerodrome Forecast
Issued by NWS Sterling, VA

Home | Current Version | Previous Version | Text Only | Print | Product List | Glossary On
Versions: 1 2 3 4 5 6 7 8 9 10 11 12 13 14 15 16 17
000
FTUS41 KLWX 031731
TAFCHO
TAF
KCHO 031731Z 0318/0418 21008KT P6SM FEW050 SCT090
     FM040100 21004KT P6SM FEW050 SCT090
     FM040700 21004KT P6SM SCT250=

USA.gov is the U.S. government's official web portal to all federal, state and local government web resources and services.